sensor_id;sensor_type;location;lat;lon;timestamp;P1;durP1;ratioP1;P2;durP2;ratioP2
40116;SDS011;25829;50.228;18.936;2024-02-15T00:00:08;13.37;;;7.67;;
40116;SDS011;25829;50.228;18.936;2024-02-15T00:03:09;13.80;;;7.17;;
40116;SDS011;25829;50.228;18.936;2024-02-15T00:06:13;12.33;;;7.30;;
40116;SDS011;25829;50.228;18.936;2024-02-15T00:09:20;13.47;;;7.13;;
40116;SDS011;25829;50.228;18.936;2024-02-15T00:12:21;13.27;;;7.20;;
40116;SDS011;25829;50.228;18.936;2024-02-15T00:15:21;10.50;;;6.30;;
40116;SDS011;25829;50.228;18.936;2024-02-15T00:18:31;10.70;;;6.10;;
40116;SDS011;25829;50.228;18.936;2024-02-15T00:21:37;11.63;;;7.03;;
40116;SDS011;25829;50.228;18.936;2024-02-15T00:24:38;12.00;;;6.63;;
40116;SDS011;25829;50.228;18.936;2024-02-15T00:27:39;8.63;;;6.67;;
40116;SDS011;25829;50.228;18.936;2024-02-15T00:30:39;9.80;;;5.80;;
40116;SDS011;25829;50.228;18.936;2024-02-15T00:33:40;9.80;;;5.70;;
40116;SDS011;25829;50.228;18.936;2024-02-15T00:36:44;11.93;;;6.10;;
40116;SDS011;25829;50.228;18.936;2024-02-15T00:39:45;9.07;;;5.47;;
40116;SDS011;25829;50.228;18.936;2024-02-15T00:42:46;8.47;;;6.27;;
40116;SDS011;25829;50.228;18.936;2024-02-15T00:45:47;12.77;;;6.00;;
40116;SDS011;25829;50.228;18.936;2024-02-15T00:48:48;10.97;;;6.20;;
40116;SDS011;25829;50.228;18.936;2024-02-15T00:51:49;8.90;;;5.77;;
40116;SDS011;25829;50.228;18.936;2024-02-15T00:54:50;11.27;;;6.17;;
40116;SDS011;25829;50.228;18.936;2024-02-15T00:57:51;12.33;;;6.67;;
40116;SDS011;25829;50.228;18.936;2024-02-15T01:00:53;14.10;;;7.00;;
40116;SDS011;25829;50.228;18.936;2024-02-15T01:03:57;10.00;;;5.80;;
40116;SDS011;25829;50.228;18.936;2024-02-15T01:06:58;11.00;;;6.00;;
40116;SDS011;25829;50.228;18.936;2024-02-15T01:10:02;8.53;;;5.10;;
40116;SDS011;25829;50.228;18.936;2024-02-15T01:13:06;8.17;;;5.73;;
40116;SDS011;25829;50.228;18.936;2024-02-15T01:16:07;11.40;;;6.33;;
40116;SDS011;25829;50.228;18.936;2024-02-15T01:19:08;9.80;;;6.10;;
40116;SDS011;25829;50.228;18.936;2024-02-15T01:22:09;9.87;;;6.20;;
40116;SDS011;25829;50.228;18.936;2024-02-15T01:25:10;7.90;;;5.57;;
40116;SDS011;25829;50.228;18.936;2024-02-15T01:28:11;10.83;;;5.90;;
40116;SDS011;25829;50.228;18.936;2024-02-15T01:31:12;11.27;;;6.50;;
40116;SDS011;25829;50.228;18.936;2024-02-15T01:34:13;10.63;;;6.43;;
40116;SDS011;25829;50.228;18.936;2024-02-15T01:37:14;11.20;;;5.97;;
40116;SDS011;25829;50.228;18.936;2024-02-15T01:40:14;11.47;;;6.20;;
40116;SDS011;25829;50.228;18.936;2024-02-15T01:43:17;8.97;;;6.77;;
40116;SDS011;25829;50.228;18.936;2024-02-15T01:46:18;11.27;;;7.50;;
40116;SDS011;25829;50.228;18.936;2024-02-15T01:49:21;8.93;;;6.60;;
40116;SDS011;25829;50.228;18.936;2024-02-15T01:52:23;10.13;;;5.80;;
40116;SDS011;25829;50.228;18.936;2024-02-15T01:55:23;5.43;;;4.83;;
40116;SDS011;25829;50.228;18.936;2024-02-15T01:58:28;7.53;;;5.33;;
40116;SDS011;25829;50.228;18.936;2024-02-15T02:01:32;8.03;;;5.17;;
40116;SDS011;25829;50.228;18.936;2024-02-15T02:04:33;10.30;;;5.33;;
40116;SDS011;25829;50.228;18.936;2024-02-15T02:07:35;10.37;;;6.37;;
40116;SDS011;25829;50.228;18.936;2024-02-15T02:10:39;14.07;;;8.20;;
40116;SDS011;25829;50.228;18.936;2024-02-15T02:13:40;13.73;;;7.13;;
40116;SDS011;25829;50.228;18.936;2024-02-15T02:16:41;9.50;;;6.13;;
40116;SDS011;25829;50.228;18.936;2024-02-15T02:19:42;8.67;;;5.37;;
40116;SDS011;25829;50.228;18.936;2024-02-15T02:22:44;8.33;;;5.87;;
40116;SDS011;25829;50.228;18.936;2024-02-15T02:25:48;9.47;;;6.17;;
40116;SDS011;25829;50.228;18.936;2024-02-15T02:28:49;10.23;;;5.50;;
40116;SDS011;25829;50.228;18.936;2024-02-15T02:31:51;6.47;;;4.80;;
40116;SDS011;25829;50.228;18.936;2024-02-15T02:34:52;7.43;;;5.17;;
40116;SDS011;25829;50.228;18.936;2024-02-15T02:37:57;6.17;;;4.80;;
40116;SDS011;25829;50.228;18.936;2024-02-15T02:40:58;7.37;;;5.40;;
40116;SDS011;25829;50.228;18.936;2024-02-15T02:43:59;6.70;;;4.20;;
40116;SDS011;25829;50.228;18.936;2024-02-15T02:47:00;9.70;;;4.90;;
40116;SDS011;25829;50.228;18.936;2024-02-15T02:50:01;5.77;;;4.57;;
40116;SDS011;25829;50.228;18.936;2024-02-15T02:53:03;9.13;;;4.70;;
40116;SDS011;25829;50.228;18.936;2024-02-15T02:56:05;10.07;;;5.00;;
40116;SDS011;25829;50.228;18.936;2024-02-15T02:59:08;9.40;;;5.37;;
40116;SDS011;25829;50.228;18.936;2024-02-15T03:02:09;8.07;;;5.00;;
40116;SDS011;25829;50.228;18.936;2024-02-15T03:05:10;9.63;;;5.10;;
40116;SDS011;25829;50.228;18.936;2024-02-15T03:08:11;10.43;;;6.37;;
40116;SDS011;25829;50.228;18.936;2024-02-15T03:11:18;7.53;;;5.03;;
40116;SDS011;25829;50.228;18.936;2024-02-15T03:14:18;9.30;;;5.23;;
40116;SDS011;25829;50.228;18.936;2024-02-15T03:17:21;7.27;;;5.27;;
40116;SDS011;25829;50.228;18.936;2024-02-15T03:20:23;11.80;;;6.40;;
40116;SDS011;25829;50.228;18.936;2024-02-15T03:23:26;14.03;;;6.63;;
40116;SDS011;25829;50.228;18.936;2024-02-15T03:26:32;16.27;;;9.70;;
40116;SDS011;25829;50.228;18.936;2024-02-15T03:29:37;12.20;;;7.63;;
40116;SDS011;25829;50.228;18.936;2024-02-15T03:32:37;13.67;;;8.13;;
40116;SDS011;25829;50.228;18.936;2024-02-15T03:35:38;15.33;;;8.00;;
40116;SDS011;25829;50.228;18.936;2024-02-15T03:38:39;11.97;;;7.17;;
40116;SDS011;25829;50.228;18.936;2024-02-15T03:41:41;9.80;;;5.67;;
40116;SDS011;25829;50.228;18.936;2024-02-15T03:44:42;10.10;;;6.33;;
40116;SDS011;25829;50.228;18.936;2024-02-15T03:47:43;8.67;;;6.07;;
40116;SDS011;25829;50.228;18.936;2024-02-15T03:50:44;9.23;;;5.90;;
40116;SDS011;25829;50.228;18.936;2024-02-15T03:53:45;11.90;;;7.47;;
40116;SDS011;25829;50.228;18.936;2024-02-15T03:56:49;9.77;;;6.27;;
40116;SDS011;25829;50.228;18.936;2024-02-15T03:59:53;14.33;;;6.73;;
40116;SDS011;25829;50.228;18.936;2024-02-15T04:02:57;10.20;;;6.47;;
40116;SDS011;25829;50.228;18.936;2024-02-15T04:05:57;11.17;;;6.13;;
40116;SDS011;25829;50.228;18.936;2024-02-15T04:09:00;8.30;;;6.07;;
40116;SDS011;25829;50.228;18.936;2024-02-15T04:12:01;12.10;;;7.10;;
40116;SDS011;25829;50.228;18.936;2024-02-15T04:15:03;11.27;;;6.13;;
40116;SDS011;25829;50.228;18.936;2024-02-15T04:18:11;12.60;;;6.97;;
40116;SDS011;25829;50.228;18.936;2024-02-15T04:21:12;12.43;;;6.60;;
40116;SDS011;25829;50.228;18.936;2024-02-15T04:24:13;9.93;;;5.37;;
40116;SDS011;25829;50.228;18.936;2024-02-15T04:27:20;10.50;;;6.13;;
40116;SDS011;25829;50.228;18.936;2024-02-15T04:30:21;8.20;;;6.37;;
40116;SDS011;25829;50.228;18.936;2024-02-15T04:33:24;7.60;;;5.60;;
40116;SDS011;25829;50.228;18.936;2024-02-15T04:36:25;9.30;;;6.07;;
40116;SDS011;25829;50.228;18.936;2024-02-15T04:39:26;16.83;;;8.27;;
40116;SDS011;25829;50.228;18.936;2024-02-15T04:42:28;34.77;;;15.17;;
40116;SDS011;25829;50.228;18.936;2024-02-15T04:45:30;49.33;;;17.20;;
40116;SDS011;25829;50.228;18.936;2024-02-15T04:48:32;21.93;;;10.70;;
40116;SDS011;25829;50.228;18.936;2024-02-15T04:55:54;21.40;;;9.37;;
40116;SDS011;25829;50.228;18.936;2024-02-15T04:58:55;36.97;;;13.23;;
40116;SDS011;25829;50.228;18.936;2024-02-15T05:01:57;16.10;;;8.30;;
40116;SDS011;25829;50.228;18.936;2024-02-15T05:04:58;22.67;;;10.43;;
40116;SDS011;25829;50.228;18.936;2024-02-15T05:07:59;25.20;;;11.47;;
40116;SDS011;25829;50.228;18.936;2024-02-15T05:11:02;25.33;;;12.07;;
40116;SDS011;25829;50.228;18.936;2024-02-15T05:14:04;31.17;;;11.97;;
40116;SDS011;25829;50.228;18.936;2024-02-15T05:17:07;16.80;;;8.57;;
40116;SDS011;25829;50.228;18.936;2024-02-15T05:20:11;18.03;;;8.23;;
40116;SDS011;25829;50.228;18.936;2024-02-15T05:23:13;10.27;;;6.00;;
40116;SDS011;25829;50.228;18.936;2024-02-15T05:26:15;9.37;;;6.30;;
40116;SDS011;25829;50.228;18.936;2024-02-15T05:29:23;11.77;;;6.87;;
40116;SDS011;25829;50.228;18.936;2024-02-15T05:32:24;9.73;;;6.33;;
40116;SDS011;25829;50.228;18.936;2024-02-15T05:35:26;9.03;;;6.00;;
40116;SDS011;25829;50.228;18.936;2024-02-15T05:38:28;10.37;;;5.90;;
40116;SDS011;25829;50.228;18.936;2024-02-15T05:46:38;11.93;;;5.63;;
40116;SDS011;25829;50.228;18.936;2024-02-15T05:49:40;10.00;;;5.30;;
40116;SDS011;25829;50.228;18.936;2024-02-15T05:52:41;9.17;;;5.43;;
40116;SDS011;25829;50.228;18.936;2024-02-15T05:55:41;11.47;;;5.87;;
40116;SDS011;25829;50.228;18.936;2024-02-15T05:58:44;10.70;;;6.63;;
40116;SDS011;25829;50.228;18.936;2024-02-15T06:01:46;11.00;;;6.47;;
40116;SDS011;25829;50.228;18.936;2024-02-15T06:04:50;13.27;;;6.57;;
40116;SDS011;25829;50.228;18.936;2024-02-15T06:07:53;10.47;;;6.70;;
40116;SDS011;25829;50.228;18.936;2024-02-15T06:10:54;11.50;;;6.73;;
40116;SDS011;25829;50.228;18.936;2024-02-15T06:13:55;11.77;;;6.47;;
40116;SDS011;25829;50.228;18.936;2024-02-15T06:16:56;9.77;;;5.97;;
40116;SDS011;25829;50.228;18.936;2024-02-15T06:19:58;9.50;;;5.97;;
40116;SDS011;25829;50.228;18.936;2024-02-15T06:22:59;11.70;;;6.07;;
40116;SDS011;25829;50.228;18.936;2024-02-15T06:26:00;10.43;;;5.93;;
40116;SDS011;25829;50.228;18.936;2024-02-15T06:29:02;10.27;;;6.40;;
40116;SDS011;25829;50.228;18.936;2024-02-15T06:32:22;9.60;;;5.43;;
40116;SDS011;25829;50.228;18.936;2024-02-15T06:35:41;9.03;;;5.97;;
40116;SDS011;25829;50.228;18.936;2024-02-15T06:39:01;8.43;;;5.63;;
40116;SDS011;25829;50.228;18.936;2024-02-15T06:42:20;9.53;;;6.03;;
40116;SDS011;25829;50.228;18.936;2024-02-15T06:45:22;7.77;;;5.93;;
40116;SDS011;25829;50.228;18.936;2024-02-15T06:48:23;12.43;;;6.23;;
40116;SDS011;25829;50.228;18.936;2024-02-15T06:51:25;10.10;;;5.70;;
40116;SDS011;25829;50.228;18.936;2024-02-15T06:54:26;10.23;;;5.87;;
40116;SDS011;25829;50.228;18.936;2024-02-15T06:57:33;10.53;;;6.60;;
40116;SDS011;25829;50.228;18.936;2024-02-15T07:00:36;10.47;;;7.07;;
40116;SDS011;25829;50.228;18.936;2024-02-15T07:03:42;10.07;;;7.40;;
40116;SDS011;25829;50.228;18.936;2024-02-15T07:06:48;12.37;;;8.10;;
40116;SDS011;25829;50.228;18.936;2024-02-15T07:09:52;14.83;;;8.17;;
40116;SDS011;25829;50.228;18.936;2024-02-15T07:12:54;17.83;;;9.67;;
40116;SDS011;25829;50.228;18.936;2024-02-15T07:15:58;14.40;;;9.23;;
40116;SDS011;25829;50.228;18.936;2024-02-15T07:19:11;17.07;;;9.97;;
40116;SDS011;25829;50.228;18.936;2024-02-15T07:22:13;22.43;;;13.60;;
40116;SDS011;25829;50.228;18.936;2024-02-15T07:25:14;22.77;;;14.73;;
40116;SDS011;25829;50.228;18.936;2024-02-15T07:28:15;21.53;;;13.50;;
40116;SDS011;25829;50.228;18.936;2024-02-15T07:31:16;22.33;;;14.30;;
40116;SDS011;25829;50.228;18.936;2024-02-15T07:34:16;31.40;;;15.33;;
40116;SDS011;25829;50.228;18.936;2024-02-15T07:37:17;23.37;;;14.07;;
40116;SDS011;25829;50.228;18.936;2024-02-15T07:40:18;23.40;;;14.27;;
40116;SDS011;25829;50.228;18.936;2024-02-15T07:43:22;22.63;;;14.93;;
40116;SDS011;25829;50.228;18.936;2024-02-15T07:46:27;21.90;;;12.73;;
40116;SDS011;25829;50.228;18.936;2024-02-15T07:49:28;21.63;;;13.70;;
40116;SDS011;25829;50.228;18.936;2024-02-15T07:52:29;20.23;;;13.23;;
40116;SDS011;25829;50.228;18.936;2024-02-15T07:55:30;17.17;;;10.60;;
40116;SDS011;25829;50.228;18.936;2024-02-15T07:58:31;15.50;;;10.30;;
40116;SDS011;25829;50.228;18.936;2024-02-15T08:01:32;12.80;;;8.70;;
40116;SDS011;25829;50.228;18.936;2024-02-15T08:04:35;12.77;;;8.33;;
40116;SDS011;25829;50.228;18.936;2024-02-15T08:07:41;10.77;;;6.93;;
40116;SDS011;25829;50.228;18.936;2024-02-15T08:10:44;10.97;;;7.23;;
40116;SDS011;25829;50.228;18.936;2024-02-15T08:13:46;8.80;;;5.97;;
40116;SDS011;25829;50.228;18.936;2024-02-15T08:16:54;10.87;;;6.97;;
40116;SDS011;25829;50.228;18.936;2024-02-15T08:19:56;11.17;;;6.57;;
40116;SDS011;25829;50.228;18.936;2024-02-15T08:22:56;9.60;;;6.03;;
40116;SDS011;25829;50.228;18.936;2024-02-15T08:25:59;9.90;;;6.13;;
40116;SDS011;25829;50.228;18.936;2024-02-15T08:29:00;10.23;;;6.67;;
40116;SDS011;25829;50.228;18.936;2024-02-15T08:32:00;8.50;;;6.17;;
40116;SDS011;25829;50.228;18.936;2024-02-15T08:35:01;10.17;;;6.70;;
40116;SDS011;25829;50.228;18.936;2024-02-15T08:38:05;8.83;;;5.77;;
40116;SDS011;25829;50.228;18.936;2024-02-15T08:41:06;10.27;;;6.57;;
40116;SDS011;25829;50.228;18.936;2024-02-15T08:44:08;14.13;;;6.67;;
40116;SDS011;25829;50.228;18.936;2024-02-15T08:47:10;13.03;;;6.73;;
40116;SDS011;25829;50.228;18.936;2024-02-15T08:50:18;10.80;;;7.30;;
40116;SDS011;25829;50.228;18.936;2024-02-15T08:53:20;10.60;;;7.07;;
40116;SDS011;25829;50.228;18.936;2024-02-15T08:56:21;10.53;;;6.27;;
40116;SDS011;25829;50.228;18.936;2024-02-15T08:59:38;9.37;;;6.03;;
40116;SDS011;25829;50.228;18.936;2024-02-15T09:02:40;9.77;;;6.27;;
40116;SDS011;25829;50.228;18.936;2024-02-15T09:05:41;11.47;;;7.10;;
40116;SDS011;25829;50.228;18.936;2024-02-15T09:08:41;8.35;;;5.70;;
40116;SDS011;25829;50.228;18.936;2024-02-15T09:11:42;8.63;;;5.93;;
40116;SDS011;25829;50.228;18.936;2024-02-15T09:14:43;7.13;;;5.05;;
40116;SDS011;25829;50.228;18.936;2024-02-15T09:17:44;7.90;;;4.70;;
40116;SDS011;25829;50.228;18.936;2024-02-15T09:20:48;5.47;;;4.10;;
40116;SDS011;25829;50.228;18.936;2024-02-15T09:23:55;4.57;;;3.50;;
40116;SDS011;25829;50.228;18.936;2024-02-15T09:26:56;9.00;;;5.43;;
40116;SDS011;25829;50.228;18.936;2024-02-15T09:29:57;7.35;;;4.40;;
40116;SDS011;25829;50.228;18.936;2024-02-15T09:32:58;7.10;;;4.57;;
40116;SDS011;25829;50.228;18.936;2024-02-15T09:35:58;5.43;;;3.80;;
40116;SDS011;25829;50.228;18.936;2024-02-15T09:38:59;5.18;;;3.83;;
40116;SDS011;25829;50.228;18.936;2024-02-15T09:42:00;4.10;;;3.45;;
40116;SDS011;25829;50.228;18.936;2024-02-15T09:45:01;6.50;;;4.00;;
40116;SDS011;25829;50.228;18.936;2024-02-15T09:48:06;5.38;;;3.42;;
40116;SDS011;25829;50.228;18.936;2024-02-15T09:51:09;8.60;;;5.22;;
40116;SDS011;25829;50.228;18.936;2024-02-15T09:54:12;8.77;;;5.90;;
40116;SDS011;25829;50.228;18.936;2024-02-15T09:57:25;8.43;;;5.10;;
40116;SDS011;25829;50.228;18.936;2024-02-15T10:00:27;5.90;;;4.20;;
40116;SDS011;25829;50.228;18.936;2024-02-15T10:03:28;10.13;;;6.65;;
40116;SDS011;25829;50.228;18.936;2024-02-15T10:06:32;6.47;;;4.97;;
40116;SDS011;25829;50.228;18.936;2024-02-15T10:09:33;6.50;;;4.78;;
40116;SDS011;25829;50.228;18.936;2024-02-15T10:12:37;6.72;;;4.93;;
40116;SDS011;25829;50.228;18.936;2024-02-15T10:15:41;7.40;;;5.88;;
40116;SDS011;25829;50.228;18.936;2024-02-15T10:18:51;5.97;;;5.00;;
40116;SDS011;25829;50.228;18.936;2024-02-15T10:21:52;9.82;;;5.88;;
40116;SDS011;25829;50.228;18.936;2024-02-15T10:25:11;8.15;;;5.95;;
40116;SDS011;25829;50.228;18.936;2024-02-15T10:28:14;4.65;;;3.97;;
40116;SDS011;25829;50.228;18.936;2024-02-15T10:31:23;5.60;;;3.97;;
40116;SDS011;25829;50.228;18.936;2024-02-15T10:34:24;9.23;;;5.65;;
40116;SDS011;25829;50.228;18.936;2024-02-15T10:37:28;6.63;;;4.18;;
40116;SDS011;25829;50.228;18.936;2024-02-15T10:40:28;4.03;;;3.17;;
40116;SDS011;25829;50.228;18.936;2024-02-15T10:43:32;6.32;;;4.18;;
40116;SDS011;25829;50.228;18.936;2024-02-15T10:46:40;7.68;;;4.22;;
40116;SDS011;25829;50.228;18.936;2024-02-15T10:49:41;4.88;;;3.78;;
40116;SDS011;25829;50.228;18.936;2024-02-15T10:53:30;5.35;;;3.58;;
40116;SDS011;25829;50.228;18.936;2024-02-15T10:56:33;6.32;;;3.88;;
40116;SDS011;25829;50.228;18.936;2024-02-15T11:00:11;5.05;;;3.45;;
40116;SDS011;25829;50.228;18.936;2024-02-15T11:03:11;4.70;;;3.05;;
40116;SDS011;25829;50.228;18.936;2024-02-15T11:06:27;5.25;;;3.80;;
40116;SDS011;25829;50.228;18.936;2024-02-15T11:09:57;5.63;;;3.30;;
40116;SDS011;25829;50.228;18.936;2024-02-15T11:12:59;6.97;;;3.80;;
40116;SDS011;25829;50.228;18.936;2024-02-15T11:16:01;5.43;;;4.28;;
40116;SDS011;25829;50.228;18.936;2024-02-15T11:19:05;4.85;;;3.92;;
40116;SDS011;25829;50.228;18.936;2024-02-15T11:22:09;6.82;;;4.35;;
40116;SDS011;25829;50.228;18.936;2024-02-15T11:25:11;7.90;;;4.95;;
40116;SDS011;25829;50.228;18.936;2024-02-15T11:31:52;13.23;;;5.95;;
40116;SDS011;25829;50.228;18.936;2024-02-15T11:35:02;5.43;;;3.20;;
40116;SDS011;25829;50.228;18.936;2024-02-15T11:38:11;9.88;;;5.70;;
40116;SDS011;25829;50.228;18.936;2024-02-15T11:41:28;6.68;;;4.15;;
40116;SDS011;25829;50.228;18.936;2024-02-15T11:44:29;8.77;;;5.40;;
40116;SDS011;25829;50.228;18.936;2024-02-15T11:47:32;7.45;;;4.18;;
40116;SDS011;25829;50.228;18.936;2024-02-15T11:50:37;7.85;;;4.88;;
40116;SDS011;25829;50.228;18.936;2024-02-15T11:57:21;4.15;;;3.05;;
40116;SDS011;25829;50.228;18.936;2024-02-15T12:00:39;5.15;;;3.05;;
40116;SDS011;25829;50.228;18.936;2024-02-15T12:03:58;5.38;;;3.30;;
40116;SDS011;25829;50.228;18.936;2024-02-15T12:07:17;3.65;;;3.13;;
40116;SDS011;25829;50.228;18.936;2024-02-15T12:10:37;5.97;;;3.22;;
40116;SDS011;25829;50.228;18.936;2024-02-15T12:13:56;4.35;;;3.42;;
40116;SDS011;25829;50.228;18.936;2024-02-15T12:17:15;5.25;;;3.30;;
40116;SDS011;25829;50.228;18.936;2024-02-15T12:20:36;4.45;;;3.55;;
40116;SDS011;25829;50.228;18.936;2024-02-15T12:23:37;7.25;;;3.17;;
40116;SDS011;25829;50.228;18.936;2024-02-15T12:26:39;6.40;;;3.30;;
40116;SDS011;25829;50.228;18.936;2024-02-15T12:29:41;5.00;;;3.42;;
40116;SDS011;25829;50.228;18.936;2024-02-15T12:32:42;5.40;;;3.67;;
40116;SDS011;25829;50.228;18.936;2024-02-15T12:36:03;5.68;;;4.07;;
40116;SDS011;25829;50.228;18.936;2024-02-15T12:39:26;4.88;;;4.07;;
40116;SDS011;25829;50.228;18.936;2024-02-15T12:42:31;4.78;;;3.70;;
40116;SDS011;25829;50.228;18.936;2024-02-15T12:46:11;6.07;;;4.07;;
40116;SDS011;25829;50.228;18.936;2024-02-15T12:52:50;4.15;;;2.83;;
40116;SDS011;25829;50.228;18.936;2024-02-15T12:55:57;4.47;;;2.83;;
40116;SDS011;25829;50.228;18.936;2024-02-15T12:59:01;4.10;;;2.95;;
40116;SDS011;25829;50.228;18.936;2024-02-15T13:02:01;3.55;;;2.63;;
40116;SDS011;25829;50.228;18.936;2024-02-15T13:05:02;7.13;;;2.85;;
40116;SDS011;25829;50.228;18.936;2024-02-15T13:08:04;3.58;;;2.92;;
40116;SDS011;25829;50.228;18.936;2024-02-15T13:11:10;4.65;;;3.15;;
40116;SDS011;25829;50.228;18.936;2024-02-15T13:14:13;2.97;;;2.55;;
40116;SDS011;25829;50.228;18.936;2024-02-15T13:17:13;4.82;;;3.40;;
40116;SDS011;25829;50.228;18.936;2024-02-15T13:20:14;6.00;;;4.03;;
40116;SDS011;25829;50.228;18.936;2024-02-15T13:23:17;7.65;;;3.30;;
40116;SDS011;25829;50.228;18.936;2024-02-15T13:31:02;5.50;;;4.15;;
40116;SDS011;25829;50.228;18.936;2024-02-15T13:34:03;4.15;;;3.63;;
40116;SDS011;25829;50.228;18.936;2024-02-15T13:37:03;3.88;;;3.28;;
40116;SDS011;25829;50.228;18.936;2024-02-15T13:40:04;4.22;;;3.20;;
40116;SDS011;25829;50.228;18.936;2024-02-15T13:43:15;9.15;;;5.97;;
40116;SDS011;25829;50.228;18.936;2024-02-15T13:46:24;7.93;;;4.50;;
40116;SDS011;25829;50.228;18.936;2024-02-15T13:49:25;6.97;;;4.80;;
40116;SDS011;25829;50.228;18.936;2024-02-15T13:52:26;4.63;;;3.80;;
40116;SDS011;25829;50.228;18.936;2024-02-15T13:55:27;5.13;;;3.30;;
40116;SDS011;25829;50.228;18.936;2024-02-15T13:58:37;4.70;;;3.38;;
40116;SDS011;25829;50.228;18.936;2024-02-15T14:01:38;4.78;;;3.60;;
40116;SDS011;25829;50.228;18.936;2024-02-15T14:04:45;4.20;;;3.65;;
40116;SDS011;25829;50.228;18.936;2024-02-15T14:07:47;4.65;;;3.47;;
40116;SDS011;25829;50.228;18.936;2024-02-15T14:10:48;5.20;;;3.80;;
40116;SDS011;25829;50.228;18.936;2024-02-15T14:13:49;7.00;;;3.65;;
40116;SDS011;25829;50.228;18.936;2024-02-15T14:16:55;5.40;;;3.75;;
40116;SDS011;25829;50.228;18.936;2024-02-15T14:20:05;4.45;;;3.53;;
40116;SDS011;25829;50.228;18.936;2024-02-15T14:23:13;5.22;;;3.55;;
40116;SDS011;25829;50.228;18.936;2024-02-15T14:26:17;6.05;;;4.07;;
40116;SDS011;25829;50.228;18.936;2024-02-15T14:29:18;13.02;;;7.93;;
40116;SDS011;25829;50.228;18.936;2024-02-15T14:32:23;6.20;;;3.80;;
40116;SDS011;25829;50.228;18.936;2024-02-15T14:35:42;11.82;;;8.95;;
40116;SDS011;25829;50.228;18.936;2024-02-15T14:38:43;7.10;;;3.90;;
40116;SDS011;25829;50.228;18.936;2024-02-15T14:41:44;5.25;;;4.13;;
40116;SDS011;25829;50.228;18.936;2024-02-15T14:44:45;4.45;;;3.78;;
40116;SDS011;25829;50.228;18.936;2024-02-15T14:47:46;5.50;;;4.07;;
40116;SDS011;25829;50.228;18.936;2024-02-15T14:50:47;4.47;;;4.00;;
40116;SDS011;25829;50.228;18.936;2024-02-15T14:53:50;4.18;;;3.38;;
40116;SDS011;25829;50.228;18.936;2024-02-15T14:56:51;6.38;;;3.55;;
40116;SDS011;25829;50.228;18.936;2024-02-15T14:59:57;4.72;;;3.00;;
40116;SDS011;25829;50.228;18.936;2024-02-15T15:02:58;5.40;;;2.95;;
40116;SDS011;25829;50.228;18.936;2024-02-15T15:05:59;5.63;;;3.50;;
40116;SDS011;25829;50.228;18.936;2024-02-15T15:09:18;6.32;;;3.40;;
40116;SDS011;25829;50.228;18.936;2024-02-15T15:12:37;3.33;;;3.03;;
40116;SDS011;25829;50.228;18.936;2024-02-15T15:15:39;3.75;;;2.55;;
40116;SDS011;25829;50.228;18.936;2024-02-15T15:18:40;6.43;;;4.72;;
40116;SDS011;25829;50.228;18.936;2024-02-15T15:21:41;6.03;;;4.45;;
40116;SDS011;25829;50.228;18.936;2024-02-15T15:24:43;6.15;;;3.80;;
40116;SDS011;25829;50.228;18.936;2024-02-15T15:27:47;4.20;;;3.03;;
40116;SDS011;25829;50.228;18.936;2024-02-15T15:30:51;3.10;;;2.80;;
40116;SDS011;25829;50.228;18.936;2024-02-15T15:41:21;5.72;;;3.03;;
40116;SDS011;25829;50.228;18.936;2024-02-15T15:44:22;4.53;;;3.22;;
40116;SDS011;25829;50.228;18.936;2024-02-15T15:51:41;6.10;;;3.20;;
40116;SDS011;25829;50.228;18.936;2024-02-15T15:54:43;3.47;;;2.90;;
40116;SDS011;25829;50.228;18.936;2024-02-15T15:57:53;8.00;;;3.63;;
40116;SDS011;25829;50.228;18.936;2024-02-15T16:00:55;5.53;;;3.63;;
40116;SDS011;25829;50.228;18.936;2024-02-15T16:03:56;6.97;;;3.50;;
40116;SDS011;25829;50.228;18.936;2024-02-15T16:06:57;7.40;;;4.10;;
40116;SDS011;25829;50.228;18.936;2024-02-15T16:09:58;8.80;;;5.97;;
40116;SDS011;25829;50.228;18.936;2024-02-15T16:12:59;9.70;;;6.97;;
40116;SDS011;25829;50.228;18.936;2024-02-15T16:16:01;8.10;;;6.40;;
40116;SDS011;25829;50.228;18.936;2024-02-15T16:25:33;8.57;;;6.20;;
40116;SDS011;25829;50.228;18.936;2024-02-15T16:28:34;9.10;;;6.60;;
40116;SDS011;25829;50.228;18.936;2024-02-15T16:31:35;9.07;;;6.90;;
40116;SDS011;25829;50.228;18.936;2024-02-15T16:34:35;10.90;;;7.53;;
40116;SDS011;25829;50.228;18.936;2024-02-15T16:37:40;10.27;;;7.33;;
40116;SDS011;25829;50.228;18.936;2024-02-15T16:40:44;10.57;;;8.83;;
40116;SDS011;25829;50.228;18.936;2024-02-15T16:43:45;11.10;;;8.87;;
40116;SDS011;25829;50.228;18.936;2024-02-15T16:46:47;15.30;;;12.13;;
40116;SDS011;25829;50.228;18.936;2024-02-15T16:49:48;25.37;;;16.27;;
40116;SDS011;25829;50.228;18.936;2024-02-15T16:56:28;25.40;;;14.53;;
40116;SDS011;25829;50.228;18.936;2024-02-15T17:03:47;14.95;;;11.55;;
40116;SDS011;25829;50.228;18.936;2024-02-15T17:07:00;13.13;;;9.07;;
40116;SDS011;25829;50.228;18.936;2024-02-15T17:10:01;11.87;;;8.67;;
40116;SDS011;25829;50.228;18.936;2024-02-15T17:13:02;10.30;;;7.37;;
40116;SDS011;25829;50.228;18.936;2024-02-15T17:16:04;8.57;;;6.20;;
40116;SDS011;25829;50.228;18.936;2024-02-15T17:19:05;16.00;;;8.03;;
40116;SDS011;25829;50.228;18.936;2024-02-15T17:22:07;10.67;;;7.80;;
40116;SDS011;25829;50.228;18.936;2024-02-15T17:25:09;13.73;;;8.77;;
40116;SDS011;25829;50.228;18.936;2024-02-15T17:28:11;16.17;;;9.37;;
40116;SDS011;25829;50.228;18.936;2024-02-15T17:31:15;15.27;;;8.60;;
40116;SDS011;25829;50.228;18.936;2024-02-15T17:34:16;12.90;;;7.97;;
40116;SDS011;25829;50.228;18.936;2024-02-15T17:37:17;13.00;;;8.30;;
40116;SDS011;25829;50.228;18.936;2024-02-15T17:40:22;12.90;;;8.03;;
40116;SDS011;25829;50.228;18.936;2024-02-15T17:46:55;16.43;;;9.80;;
40116;SDS011;25829;50.228;18.936;2024-02-15T17:50:27;17.07;;;11.13;;
40116;SDS011;25829;50.228;18.936;2024-02-15T17:53:28;17.13;;;11.03;;
40116;SDS011;25829;50.228;18.936;2024-02-15T18:00:35;17.37;;;10.40;;
40116;SDS011;25829;50.228;18.936;2024-02-15T18:03:40;18.40;;;11.23;;
40116;SDS011;25829;50.228;18.936;2024-02-15T18:06:48;20.63;;;11.77;;
40116;SDS011;25829;50.228;18.936;2024-02-15T18:09:49;25.03;;;13.23;;
40116;SDS011;25829;50.228;18.936;2024-02-15T18:13:06;14.47;;;9.00;;
40116;SDS011;25829;50.228;18.936;2024-02-15T18:16:13;19.70;;;10.57;;
40116;SDS011;25829;50.228;18.936;2024-02-15T18:19:23;18.00;;;10.23;;
40116;SDS011;25829;50.228;18.936;2024-02-15T18:55:01;23.00;;;15.03;;
40116;SDS011;25829;50.228;18.936;2024-02-15T18:58:03;24.60;;;14.07;;
40116;SDS011;25829;50.228;18.936;2024-02-15T19:01:04;20.53;;;13.27;;
40116;SDS011;25829;50.228;18.936;2024-02-15T19:04:05;17.10;;;9.90;;
40116;SDS011;25829;50.228;18.936;2024-02-15T19:07:07;11.20;;;7.07;;
40116;SDS011;25829;50.228;18.936;2024-02-15T19:10:08;14.60;;;7.37;;
40116;SDS011;25829;50.228;18.936;2024-02-15T19:13:09;9.43;;;6.20;;
40116;SDS011;25829;50.228;18.936;2024-02-15T19:16:10;12.00;;;8.37;;
40116;SDS011;25829;50.228;18.936;2024-02-15T19:19:12;10.70;;;6.97;;
40116;SDS011;25829;50.228;18.936;2024-02-15T19:22:13;11.93;;;9.20;;
40116;SDS011;25829;50.228;18.936;2024-02-15T19:25:14;18.87;;;9.13;;
40116;SDS011;25829;50.228;18.936;2024-02-15T19:28:21;19.43;;;11.00;;
40116;SDS011;25829;50.228;18.936;2024-02-15T19:31:23;18.97;;;11.27;;